createdAt,value
2022-10-13T09:57:32.712Z,22.25
2022-10-13T09:57:52.670Z,22.28
2022-10-13T09:58:12.667Z,22.27
2022-10-13T09:58:32.726Z,22.27
2022-10-13T09:58:52.668Z,22.29
2022-10-13T09:59:12.676Z,22.28
2022-10-13T09:59:32.665Z,22.28
2022-10-13T09:59:52.749Z,22.28
2022-10-13T10:00:12.664Z,22.28
2022-10-13T10:00:32.662Z,22.31
2022-10-13T10:00:52.659Z,22.31
2022-10-13T10:01:12.666Z,22.29
2022-10-13T10:01:32.658Z,22.31
2022-10-13T10:01:52.660Z,22.31
2022-10-13T10:02:14.604Z,22.29
2022-10-13T10:02:34.018Z,22.29
2022-10-13T10:02:52.652Z,22.31
2022-10-13T10:03:12.651Z,22.29
2022-10-13T10:03:32.807Z,22.31
2022-10-13T10:03:52.702Z,22.29
2022-10-13T10:04:12.675Z,22.31
2022-10-13T10:04:32.646Z,22.29
2022-10-13T10:04:52.648Z,22.29
2022-10-13T10:05:12.645Z,22.29
2022-10-13T10:05:32.643Z,22.31
2022-10-13T10:05:52.640Z,22.31
2022-10-13T10:06:12.639Z,22.32
2022-10-13T10:06:32.638Z,22.31
2022-10-13T10:06:52.637Z,22.31
2022-10-13T10:07:12.661Z,22.31
2022-10-13T10:07:32.633Z,22.32
2022-10-13T10:07:52.634Z,22.31
2022-10-13T10:08:12.661Z,22.31
2022-10-13T10:08:33.818Z,22.31
2022-10-13T10:09:07.107Z,22.31
2022-10-13T10:09:13.632Z,22.32
2022-10-13T10:09:32.628Z,22.32
2022-10-13T10:09:52.629Z,22.32
2022-10-13T10:10:12.636Z,22.31
2022-10-13T10:10:32.627Z,22.34
2022-10-13T10:10:52.627Z,22.34
2022-10-13T10:11:12.625Z,22.35
2022-10-13T10:11:32.623Z,22.34
2022-10-13T10:11:52.621Z,22.34
2022-10-13T10:12:12.619Z,22.35
2022-10-13T10:12:32.619Z,22.35
2022-10-13T10:12:52.647Z,22.35
2022-10-13T10:13:12.616Z,22.34
2022-10-13T10:13:32.645Z,22.35
2022-10-13T10:13:52.621Z,22.35
2022-10-13T10:14:12.611Z,22.37
2022-10-13T10:14:32.611Z,22.38
2022-10-13T10:14:52.610Z,22.37
2022-10-13T10:15:12.608Z,22.35
2022-10-13T10:15:32.607Z,22.37
2022-10-13T10:15:52.605Z,22.35
2022-10-13T10:16:12.603Z,22.38
2022-10-13T10:16:32.604Z,22.37
2022-10-13T10:16:52.600Z,22.37
2022-10-13T10:17:12.610Z,22.37
2022-10-13T10:17:32.598Z,22.35
2022-10-13T10:17:52.607Z,22.37
2022-10-13T10:18:12.596Z,22.38
2022-10-13T10:18:32.598Z,22.37
2022-10-13T10:18:57.793Z,22.37
2022-10-13T10:19:13.595Z,22.38
2022-10-13T10:19:32.592Z,22.37
2022-10-13T10:19:52.591Z,22.38
2022-10-13T10:20:12.590Z,22.39
2022-10-13T10:20:32.587Z,22.38
2022-10-13T10:20:52.587Z,22.38
2022-10-13T10:21:12.587Z,22.39
2022-10-13T10:21:32.583Z,22.39
2022-10-13T10:21:52.585Z,22.41
2022-10-13T10:22:12.587Z,22.39
2022-10-13T10:22:32.579Z,22.41
2022-10-13T10:22:52.577Z,22.41
2022-10-13T10:23:12.578Z,22.41
2022-10-13T10:23:32.573Z,22.41
2022-10-13T10:23:52.599Z,22.41
2022-10-13T10:24:12.576Z,22.41
2022-10-13T10:24:32.575Z,22.39
2022-10-13T10:24:52.572Z,22.41
2022-10-13T10:25:12.597Z,22.43
2022-10-13T10:25:32.572Z,22.39
2022-10-13T10:25:52.569Z,22.39
2022-10-13T10:26:12.568Z,22.41
2022-10-13T10:26:32.944Z,22.38
2022-10-13T10:26:52.569Z,22.39
2022-10-13T10:27:12.611Z,22.39
2022-10-13T10:27:32.564Z,22.39
2022-10-13T10:27:52.563Z,22.39
2022-10-13T10:28:12.639Z,22.41
2022-10-13T10:28:32.623Z,22.38
2022-10-13T10:28:52.600Z,22.39
2022-10-13T10:29:12.585Z,22.38
2022-10-13T10:29:32.558Z,22.38
2022-10-13T10:29:52.556Z,22.38
2022-10-13T10:30:12.640Z,22.37
2022-10-13T10:30:32.553Z,22.37
2022-10-13T10:30:52.553Z,22.38
2022-10-13T10:31:12.551Z,22.37
2022-10-13T10:31:32.552Z,22.38
2022-10-13T10:31:52.549Z,22.34
2022-10-13T10:32:12.548Z,22.37
2022-10-13T10:32:32.549Z,22.37
2022-10-13T10:32:52.544Z,22.37
2022-10-13T10:33:12.543Z,22.37
2022-10-13T10:33:32.540Z,22.37
2022-10-13T10:33:52.537Z,22.37
2022-10-13T10:34:15.360Z,22.38
2022-10-13T10:34:32.556Z,22.38
2022-10-13T10:34:52.532Z,22.38
2022-10-13T10:35:12.530Z,22.37
2022-10-13T10:35:32.537Z,22.37
2022-10-13T10:35:52.529Z,22.37
2022-10-13T10:36:12.531Z,22.38
2022-10-13T10:36:32.529Z,22.37
2022-10-13T10:36:52.532Z,22.37
2022-10-13T10:37:12.535Z,22.37
2022-10-13T10:37:32.528Z,22.38
2022-10-13T10:37:52.524Z,22.35
2022-10-13T10:38:12.531Z,22.37
2022-10-13T10:38:32.524Z,22.37
2022-10-13T10:38:52.538Z,22.37
2022-10-13T10:39:12.522Z,22.38
2022-10-13T10:39:32.521Z,22.38
2022-10-13T10:39:52.544Z,22.35
2022-10-13T10:40:12.659Z,22.37
2022-10-13T10:40:32.540Z,22.38
2022-10-13T10:40:52.523Z,22.38
2022-10-13T10:41:12.516Z,22.38
2022-10-13T10:41:32.514Z,22.38
2022-10-13T10:41:52.511Z,22.37
2022-10-13T10:42:12.512Z,22.38
2022-10-13T10:42:32.511Z,22.38
2022-10-13T10:42:52.575Z,22.38
2022-10-13T10:43:12.508Z,22.38
2022-10-13T10:43:32.529Z,22.38
2022-10-13T10:43:52.509Z,22.38
2022-10-13T10:44:12.504Z,22.38
2022-10-13T10:44:32.578Z,22.38
2022-10-13T10:44:52.503Z,22.38
2022-10-13T10:45:12.527Z,22.38
2022-10-13T10:45:32.510Z,22.39
2022-10-13T10:45:52.501Z,22.38
2022-10-13T10:46:12.499Z,22.39
2022-10-13T10:46:32.499Z,22.39
2022-10-13T10:46:52.497Z,22.38
2022-10-13T10:47:12.494Z,22.38
2022-10-13T10:47:32.494Z,22.38
2022-10-13T10:47:52.494Z,22.38
2022-10-13T10:48:12.496Z,22.38
2022-10-13T10:48:32.490Z,22.39
2022-10-13T10:48:52.489Z,22.38
2022-10-13T10:49:12.488Z,22.38
2022-10-13T10:49:32.488Z,22.37
2022-10-13T10:49:52.484Z,22.38
2022-10-13T10:50:12.487Z,22.39
2022-10-13T10:50:32.739Z,22.37
2022-10-13T10:50:52.482Z,22.38
2022-10-13T10:51:12.487Z,22.38
2022-10-13T10:51:32.481Z,22.39
2022-10-13T10:51:52.480Z,22.39
2022-10-13T10:52:12.480Z,22.37
2022-10-13T10:52:32.476Z,22.39
2022-10-13T10:52:52.520Z,22.38
2022-10-13T10:53:12.475Z,22.39
2022-10-13T10:53:32.474Z,22.38
2022-10-13T10:53:52.472Z,22.38
2022-10-13T10:54:12.471Z,22.38
2022-10-13T10:54:32.468Z,22.39
2022-10-13T10:54:52.469Z,22.38
2022-10-13T10:55:12.469Z,22.39
2022-10-13T10:55:32.467Z,22.39
2022-10-13T10:55:52.488Z,22.38
2022-10-13T10:56:12.484Z,22.38
2022-10-13T10:56:32.461Z,22.37
2022-10-13T10:56:52.459Z,22.39
2022-10-13T10:57:12.481Z,22.38
2022-10-13T10:57:32.453Z,22.39
2022-10-13T10:57:52.457Z,22.39
2022-10-13T10:58:12.455Z,22.39
2022-10-13T10:58:32.453Z,22.39
2022-10-13T10:58:52.479Z,22.41
2022-10-13T10:59:12.451Z,22.41
2022-10-13T10:59:32.466Z,22.41
2022-10-13T10:59:52.451Z,22.41
2022-10-13T11:00:12.602Z,22.41
2022-10-13T11:00:32.456Z,22.41
2022-10-13T11:00:52.444Z,22.41
2022-10-13T11:01:12.543Z,22.41
2022-10-13T11:01:32.509Z,22.43
2022-10-13T11:01:52.543Z,22.41
2022-10-13T11:02:12.437Z,22.41
2022-10-13T11:02:32.455Z,22.43
2022-10-13T11:02:52.552Z,22.43
2022-10-13T11:03:12.430Z,22.43
2022-10-13T11:03:32.431Z,22.44
2022-10-13T11:03:52.428Z,22.43
2022-10-13T11:04:12.427Z,22.41
2022-10-13T11:04:32.428Z,22.41
2022-10-13T11:04:52.425Z,22.43
2022-10-13T11:05:12.421Z,22.41
2022-10-13T11:05:32.428Z,22.41
2022-10-13T11:05:52.420Z,22.43
2022-10-13T11:06:12.421Z,22.44
2022-10-13T11:06:32.420Z,22.43
2022-10-13T11:06:52.419Z,22.44
2022-10-13T11:07:12.434Z,22.44
2022-10-13T11:07:32.421Z,22.44
2022-10-13T11:07:52.534Z,22.44
2022-10-13T11:08:12.417Z,22.43
2022-10-13T11:08:32.415Z,22.44
2022-10-13T11:08:52.413Z,22.43
2022-10-13T11:09:12.410Z,22.44
2022-10-13T11:09:32.409Z,22.44
2022-10-13T11:09:52.406Z,22.44
2022-10-13T11:10:12.410Z,22.44
2022-10-13T11:10:32.404Z,22.44
2022-10-13T11:10:52.404Z,22.44
2022-10-13T11:11:12.401Z,22.44
2022-10-13T11:11:36.610Z,22.44
2022-10-13T11:11:53.420Z,22.44
2022-10-13T11:12:12.397Z,22.44
2022-10-13T11:12:32.416Z,22.44
2022-10-13T11:12:52.552Z,22.44
2022-10-13T11:13:12.392Z,22.44
2022-10-13T11:13:32.391Z,22.43
2022-10-13T11:13:52.388Z,22.44
2022-10-13T11:14:12.466Z,22.44
2022-10-13T11:14:32.387Z,22.43
2022-10-13T11:14:52.386Z,22.44
2022-10-13T11:15:12.382Z,22.44
2022-10-13T11:15:32.382Z,22.44
2022-10-13T11:15:52.378Z,22.46
2022-10-13T11:16:12.378Z,22.44
2022-10-13T11:16:32.404Z,22.44
2022-10-13T11:16:52.376Z,22.43
2022-10-13T11:17:12.375Z,22.46
2022-10-13T11:17:32.374Z,22.44
2022-10-13T11:17:52.376Z,22.44
2022-10-13T11:18:12.392Z,22.44
2022-10-13T11:18:32.371Z,22.44
2022-10-13T11:18:52.371Z,22.44
2022-10-13T11:19:12.384Z,22.43
2022-10-13T11:19:32.368Z,22.43
2022-10-13T11:19:52.366Z,22.43
2022-10-13T11:20:12.365Z,22.43
2022-10-13T11:20:32.362Z,22.43
2022-10-13T11:20:52.362Z,22.44
2022-10-13T11:21:12.362Z,22.43
2022-10-13T11:21:32.379Z,22.43
2022-10-13T11:21:52.357Z,22.44
2022-10-13T11:22:12.357Z,22.44
2022-10-13T11:22:32.355Z,22.43
2022-10-13T11:22:52.355Z,22.43
2022-10-13T11:23:12.352Z,22.43
2022-10-13T11:23:32.373Z,22.44
2022-10-13T11:23:52.351Z,22.43
2022-10-13T11:24:12.349Z,22.43
2022-10-13T11:24:32.350Z,22.44
2022-10-13T11:24:52.347Z,22.41
2022-10-13T11:25:12.348Z,22.43
2022-10-13T11:25:32.346Z,22.43
2022-10-13T11:25:52.345Z,22.43
2022-10-13T11:26:12.344Z,22.43
2022-10-13T11:26:32.343Z,22.44
2022-10-13T11:26:52.342Z,22.44
2022-10-13T11:27:12.340Z,22.41
2022-10-13T11:27:32.341Z,22.41
2022-10-13T11:27:52.339Z,22.43
2022-10-13T11:28:12.409Z,22.43
2022-10-13T11:28:32.376Z,22.43
2022-10-13T11:28:52.394Z,22.41
2022-10-13T11:29:12.330Z,22.41
2022-10-13T11:29:32.351Z,22.43
2022-10-13T11:29:52.332Z,22.43
2022-10-13T11:30:12.328Z,22.43
2022-10-13T11:30:32.346Z,22.43
2022-10-13T11:30:52.323Z,22.43
2022-10-13T11:31:12.320Z,22.43
2022-10-13T11:31:35.925Z,22.43
2022-10-13T11:31:52.319Z,22.43
2022-10-13T11:32:12.318Z,22.43
2022-10-13T11:32:32.317Z,22.41
2022-10-13T11:32:52.316Z,22.43
2022-10-13T11:33:12.340Z,22.41
2022-10-13T11:33:32.312Z,22.43
2022-10-13T11:33:52.310Z,22.41
2022-10-13T11:34:12.310Z,22.43
2022-10-13T11:34:32.309Z,22.43
2022-10-13T11:34:52.306Z,22.43
2022-10-13T11:35:12.303Z,22.43
2022-10-13T11:35:32.303Z,22.43
2022-10-13T11:35:52.303Z,22.43
2022-10-13T11:36:12.303Z,22.41
2022-10-13T11:36:32.303Z,22.41
2022-10-13T11:36:52.301Z,22.41
2022-10-13T11:37:12.301Z,22.39
2022-10-13T11:37:32.299Z,22.38
2022-10-13T11:38:06.023Z,22.38
2022-10-13T11:38:17.563Z,22.39
2022-10-13T11:38:32.292Z,22.39
2022-10-13T11:38:52.291Z,22.39
2022-10-13T11:39:12.290Z,22.39
2022-10-13T11:39:32.354Z,22.39
2022-10-13T11:39:52.283Z,22.41
2022-10-13T11:40:12.284Z,22.39
2022-10-13T11:40:32.284Z,22.43
2022-10-13T11:40:52.286Z,22.41
2022-10-13T11:41:12.279Z,22.41
2022-10-13T11:41:32.280Z,22.41
2022-10-13T11:41:52.278Z,22.43
2022-10-13T11:42:12.279Z,22.43
2022-10-13T11:42:32.275Z,22.44
2022-10-13T11:42:54.403Z,22.46
2022-10-13T11:43:12.272Z,22.44
2022-10-13T11:43:32.296Z,22.46
2022-10-13T11:43:52.273Z,22.46
2022-10-13T11:44:12.332Z,22.46
2022-10-13T11:44:32.279Z,22.46
2022-10-13T11:44:52.291Z,22.47
2022-10-13T11:45:12.267Z,22.46
2022-10-13T11:45:32.271Z,22.47
2022-10-13T11:45:52.265Z,22.46
2022-10-13T11:46:12.267Z,22.46
2022-10-13T11:46:32.267Z,22.46
2022-10-13T11:46:52.263Z,22.46
2022-10-13T11:47:12.263Z,22.47
2022-10-13T11:47:32.260Z,22.47
2022-10-13T11:47:52.257Z,22.46
2022-10-13T11:48:12.264Z,22.47
2022-10-13T11:48:32.258Z,22.49
2022-10-13T11:48:52.255Z,22.49
2022-10-13T11:49:12.254Z,22.49
2022-10-13T11:49:32.276Z,22.47
2022-10-13T11:49:52.250Z,22.49
2022-10-13T11:50:12.251Z,22.47
2022-10-13T11:50:32.249Z,22.49
2022-10-13T11:50:52.249Z,22.47
2022-10-13T11:51:15.449Z,22.47
2022-10-13T11:51:32.249Z,22.46
2022-10-13T11:51:52.245Z,22.49
2022-10-13T11:52:12.246Z,22.47
2022-10-13T11:52:32.241Z,22.49
2022-10-13T11:52:52.241Z,22.47
2022-10-13T11:53:12.239Z,22.47
2022-10-13T11:53:32.238Z,22.46
2022-10-13T11:53:52.243Z,22.47
2022-10-13T11:54:12.236Z,22.46
2022-10-13T11:54:32.234Z,22.47
2022-10-13T11:54:52.256Z,22.44
2022-10-13T11:55:12.232Z,22.46
2022-10-13T11:55:32.237Z,22.46
2022-10-13T11:55:52.253Z,22.46
2022-10-13T11:56:12.228Z,22.47
2022-10-13T11:56:32.225Z,22.46
2022-10-13T11:56:52.229Z,22.47
2022-10-13T11:57:12.226Z,22.46
2022-10-13T11:57:32.231Z,22.46
2022-10-13T11:57:52.221Z,22.47
2022-10-13T11:58:12.221Z,22.47
2022-10-13T11:58:32.221Z,22.47
2022-10-13T11:58:52.217Z,22.46
2022-10-13T11:59:12.216Z,22.44
2022-10-13T11:59:32.219Z,22.46
2022-10-13T11:59:52.213Z,22.46
2022-10-13T12:00:12.235Z,22.46
2022-10-13T12:00:32.213Z,22.47
2022-10-13T12:00:52.209Z,22.47
2022-10-13T12:01:12.231Z,22.47
2022-10-13T12:01:32.206Z,22.47
2022-10-13T12:01:52.206Z,22.46
2022-10-13T12:02:12.205Z,22.46
2022-10-13T12:02:32.237Z,22.47
2022-10-13T12:02:52.320Z,22.46
2022-10-13T12:03:12.264Z,22.47
2022-10-13T12:03:32.206Z,22.47
2022-10-13T12:03:52.200Z,22.46
2022-10-13T12:04:12.197Z,22.46
2022-10-13T12:04:32.197Z,22.44
2022-10-13T12:04:52.195Z,22.47
2022-10-13T12:05:12.195Z,22.46
2022-10-13T12:05:32.192Z,22.47
2022-10-13T12:05:52.191Z,22.46
2022-10-13T12:06:12.190Z,22.46
2022-10-13T12:06:32.221Z,22.46
2022-10-13T12:06:52.195Z,22.46
2022-10-13T12:07:12.189Z,22.46
2022-10-13T12:07:32.185Z,22.46
2022-10-13T12:07:52.185Z,22.46
